createdAt,value
2022-11-15T00:02:18.737Z,15.47
2022-11-15T00:05:04.020Z,15.73
2022-11-15T00:07:55.525Z,15.80
2022-11-15T00:10:41.192Z,14.37
2022-11-15T00:13:26.813Z,15.50
2022-11-15T00:16:11.935Z,14.30
2022-11-15T00:18:58.359Z,14.27
2022-11-15T00:21:43.320Z,14.33
2022-11-15T00:24:28.165Z,13.40
2022-11-15T00:27:13.490Z,13.33
2022-11-15T00:29:58.786Z,12.57
2022-11-15T00:32:44.396Z,12.80
2022-11-15T00:35:30.004Z,11.70
2022-11-15T00:38:15.436Z,11.93
2022-11-15T00:41:05.031Z,12.73
2022-11-15T00:43:54.290Z,12.40
2022-11-15T00:46:39.328Z,12.70
2022-11-15T00:49:24.237Z,12.47
2022-11-15T00:52:09.809Z,12.27
2022-11-15T00:54:54.692Z,13.00
2022-11-15T00:57:39.904Z,12.90
2022-11-15T01:00:24.994Z,11.97
2022-11-15T01:03:10.101Z,11.57
2022-11-15T01:05:55.145Z,11.83
2022-11-15T01:08:40.940Z,12.90
2022-11-15T01:11:26.179Z,13.07
2022-11-15T01:14:11.609Z,12.60
2022-11-15T01:16:56.893Z,12.27
2022-11-15T01:19:41.812Z,12.47
2022-11-15T01:22:27.179Z,12.60
2022-11-15T01:25:12.599Z,11.87
2022-11-15T01:27:57.780Z,12.47
2022-11-15T01:30:43.162Z,12.83
2022-11-15T01:33:29.761Z,13.13
2022-11-15T01:36:22.588Z,13.00
2022-11-15T01:39:08.968Z,12.83
2022-11-15T01:41:54.194Z,12.23
2022-11-15T01:44:43.291Z,11.57
2022-11-15T01:47:42.241Z,11.80
2022-11-15T01:50:32.392Z,11.53
2022-11-15T01:53:20.137Z,11.53
2022-11-15T01:56:08.944Z,12.60
2022-11-15T01:58:56.444Z,12.80
2022-11-15T02:01:42.651Z,13.33
2022-11-15T02:04:33.697Z,12.07
2022-11-15T02:07:22.586Z,12.60
2022-11-15T02:10:28.344Z,11.23
2022-11-15T02:13:16.165Z,12.27
2022-11-15T02:16:17.477Z,12.07
2022-11-15T02:19:29.634Z,12.50
2022-11-15T02:22:38.325Z,11.47
2022-11-15T02:25:41.802Z,11.40
2022-11-15T02:28:54.250Z,11.27
2022-11-15T02:32:07.365Z,10.93
2022-11-15T02:34:57.335Z,11.90
2022-11-15T02:37:48.187Z,11.23
2022-11-15T02:40:42.725Z,10.60
2022-11-15T02:43:59.701Z,10.67
2022-11-15T02:47:19.398Z,11.57
2022-11-15T02:50:11.273Z,11.57
2022-11-15T02:52:56.813Z,11.20
2022-11-15T02:55:50.244Z,12.40
2022-11-15T02:59:05.893Z,11.83
2022-11-15T03:02:28.040Z,11.80
2022-11-15T03:05:24.834Z,11.57
2022-11-15T03:08:32.779Z,11.93
2022-11-15T03:11:20.665Z,12.23
2022-11-15T03:14:28.809Z,11.30
2022-11-15T03:17:17.549Z,11.80
2022-11-15T03:20:07.013Z,12.03
2022-11-15T03:22:55.275Z,12.30
2022-11-15T03:25:46.250Z,11.67
2022-11-15T03:28:57.924Z,11.90
2022-11-15T03:31:51.690Z,11.50
2022-11-15T03:34:45.055Z,11.83
2022-11-15T03:37:41.504Z,11.40
2022-11-15T03:40:34.525Z,11.03
2022-11-15T03:43:31.573Z,10.73
2022-11-15T03:46:34.800Z,11.90
2022-11-15T03:49:32.033Z,11.83
2022-11-15T03:52:20.048Z,11.00
2022-11-15T03:55:07.659Z,9.90
2022-11-15T03:57:56.921Z,10.43
2022-11-15T04:00:41.971Z,10.20
2022-11-15T04:03:26.687Z,10.67
2022-11-15T04:06:11.897Z,10.50
2022-11-15T04:08:56.912Z,10.17
2022-11-15T04:11:41.782Z,10.77
2022-11-15T04:14:27.091Z,10.13
2022-11-15T04:17:12.233Z,10.17
2022-11-15T04:20:15.811Z,10.03
2022-11-15T04:23:22.265Z,10.30
2022-11-15T04:26:15.746Z,9.83
2022-11-15T04:29:19.392Z,9.97
2022-11-15T04:32:06.743Z,10.57
2022-11-15T04:34:52.004Z,10.07
2022-11-15T04:37:36.773Z,9.73
2022-11-15T04:40:22.052Z,9.33
2022-11-15T04:43:07.064Z,10.13
2022-11-15T04:45:51.929Z,9.10
2022-11-15T04:48:36.865Z,9.30
2022-11-15T04:51:22.094Z,9.17
2022-11-15T04:54:07.319Z,9.40
2022-11-15T04:56:52.696Z,9.27
2022-11-15T04:59:38.052Z,8.90
2022-11-15T05:02:22.980Z,8.70
2022-11-15T05:05:08.363Z,8.47
2022-11-15T05:07:53.649Z,9.40
2022-11-15T05:10:38.734Z,8.00
2022-11-15T05:13:23.889Z,8.67
2022-11-15T05:16:09.144Z,8.40
2022-11-15T05:18:55.385Z,7.40
2022-11-15T05:21:40.640Z,8.10
2022-11-15T05:24:25.456Z,8.20
2022-11-15T05:27:10.705Z,7.90
2022-11-15T05:29:56.040Z,7.70
2022-11-15T05:32:41.029Z,7.60
2022-11-15T05:35:37.922Z,7.13
2022-11-15T05:38:24.587Z,7.57
2022-11-15T05:41:10.056Z,8.03
2022-11-15T05:43:55.320Z,7.90
2022-11-15T05:46:42.219Z,8.00
2022-11-15T05:49:32.469Z,7.03
2022-11-15T05:52:21.305Z,7.13
2022-11-15T05:55:09.534Z,7.20
2022-11-15T05:57:54.789Z,6.90
2022-11-15T06:00:40.335Z,6.90
2022-11-15T06:03:25.361Z,6.83
2022-11-15T06:06:16.098Z,7.10
2022-11-15T06:09:01.969Z,6.73
2022-11-15T06:11:47.162Z,7.47
2022-11-15T06:14:32.593Z,7.17
2022-11-15T06:17:17.740Z,6.80
2022-11-15T06:20:04.340Z,6.97
2022-11-15T06:22:49.118Z,7.40
2022-11-15T06:25:34.328Z,7.03
2022-11-15T06:28:19.675Z,6.67
2022-11-15T06:31:14.507Z,7.20
2022-11-15T06:33:59.334Z,6.83
2022-11-15T06:36:44.725Z,7.00
2022-11-15T06:39:29.559Z,6.90
2022-11-15T06:42:15.144Z,6.43
2022-11-15T06:45:00.625Z,7.00
2022-11-15T06:47:47.551Z,7.10
2022-11-15T06:50:32.630Z,7.17
2022-11-15T06:53:17.594Z,7.20
2022-11-15T06:56:04.520Z,6.90
2022-11-15T06:58:49.688Z,6.93
2022-11-15T07:01:34.976Z,7.17
2022-11-15T07:04:19.893Z,8.87
2022-11-15T07:07:04.947Z,7.40
2022-11-15T07:09:49.971Z,6.97
2022-11-15T07:12:35.413Z,6.83
2022-11-15T07:15:22.928Z,7.53
2022-11-15T07:18:08.012Z,7.43
2022-11-15T07:20:52.712Z,7.37
2022-11-15T07:23:39.078Z,8.13
2022-11-15T07:26:24.273Z,7.07
2022-11-15T07:29:09.284Z,7.63
2022-11-15T07:31:54.642Z,8.13
2022-11-15T07:34:39.765Z,7.83
2022-11-15T07:37:25.037Z,8.43
2022-11-15T07:40:10.491Z,8.33
2022-11-15T07:43:03.165Z,7.80
2022-11-15T07:45:48.049Z,8.13
2022-11-15T07:48:43.555Z,7.80
2022-11-15T07:51:29.704Z,7.63
2022-11-15T07:54:15.284Z,7.83
2022-11-15T07:57:05.492Z,7.60
2022-11-15T07:59:52.275Z,8.20
2022-11-15T08:02:37.712Z,7.37
2022-11-15T08:05:22.767Z,7.13
2022-11-15T08:08:10.154Z,7.60
2022-11-15T08:10:55.351Z,7.20
2022-11-15T08:13:40.013Z,7.03
2022-11-15T08:16:25.361Z,7.50
2022-11-15T08:19:10.195Z,7.23
2022-11-15T08:21:55.422Z,6.83
2022-11-15T08:24:40.669Z,6.47
2022-11-15T08:27:25.646Z,6.13
2022-11-15T08:30:12.026Z,6.33
2022-11-15T08:32:58.990Z,6.70
2022-11-15T08:35:44.943Z,6.57
2022-11-15T08:38:31.440Z,7.10
2022-11-15T08:41:27.729Z,6.17
2022-11-15T08:44:12.589Z,6.67
2022-11-15T08:46:57.862Z,5.90
2022-11-15T08:49:43.136Z,6.10
2022-11-15T08:52:28.356Z,6.10
2022-11-15T08:55:13.358Z,6.10
2022-11-15T08:57:59.057Z,6.33
2022-11-15T09:00:44.016Z,6.30
2022-11-15T09:03:29.494Z,5.93
2022-11-15T09:06:14.961Z,6.20
2022-11-15T09:09:02.109Z,5.87
2022-11-15T09:11:47.724Z,6.53
2022-11-15T09:14:32.933Z,5.77
2022-11-15T09:17:23.234Z,5.50
2022-11-15T09:20:10.061Z,5.43
2022-11-15T09:22:55.400Z,4.97
2022-11-15T09:25:40.379Z,5.30
2022-11-15T09:28:25.530Z,5.00
2022-11-15T09:31:11.150Z,5.13
2022-11-15T09:33:56.597Z,5.20
2022-11-15T09:36:41.847Z,4.93
2022-11-15T09:39:27.049Z,4.90
2022-11-15T09:42:42.793Z,4.63
2022-11-15T09:45:31.630Z,4.33
2022-11-15T09:48:44.696Z,3.73
2022-11-15T09:51:54.410Z,3.40
2022-11-15T09:57:36.031Z,3.20
2022-11-15T10:00:46.444Z,3.47
2022-11-15T10:03:37.091Z,3.07
2022-11-15T10:06:06.060Z,3.70
2022-11-15T10:08:51.614Z,3.63
2022-11-15T10:11:40.944Z,3.60
2022-11-15T10:14:26.490Z,3.30
2022-11-15T10:17:11.289Z,3.33
2022-11-15T10:20:05.661Z,3.07
2022-11-15T10:22:49.946Z,3.00
2022-11-15T10:25:25.927Z,3.10
2022-11-15T10:27:57.302Z,3.37
2022-11-15T10:30:29.620Z,3.30
2022-11-15T10:32:56.073Z,3.00
2022-11-15T10:35:28.912Z,3.20
2022-11-15T10:38:10.141Z,3.53
2022-11-15T10:40:38.642Z,3.10
2022-11-15T10:43:19.350Z,2.53
2022-11-15T10:45:47.397Z,2.77
2022-11-15T10:48:13.848Z,2.73
2022-11-15T10:50:43.571Z,2.70
2022-11-15T10:53:28.157Z,2.80
2022-11-15T10:55:57.597Z,4.70
2022-11-15T10:58:39.062Z,7.40
2022-11-15T11:01:20.864Z,3.67
2022-11-15T11:04:35.199Z,8.73
2022-11-15T11:07:01.783Z,3.60
2022-11-15T11:09:36.417Z,5.60
2022-11-15T11:12:30.311Z,5.20
2022-11-15T11:14:56.849Z,6.90
2022-11-15T11:17:52.334Z,7.90
2022-11-15T11:20:39.398Z,6.10
2022-11-15T11:23:44.075Z,3.50
2022-11-15T11:26:41.263Z,2.70
2022-11-15T11:29:33.099Z,3.73
2022-11-15T11:32:38.968Z,5.03
2022-11-15T11:35:18.591Z,5.50
2022-11-15T11:37:51.270Z,6.20
2022-11-15T11:40:56.312Z,3.33
2022-11-15T11:43:41.197Z,2.60
2022-11-15T11:46:39.702Z,2.80
2022-11-15T11:49:13.216Z,4.53
2022-11-15T11:51:45.075Z,3.00
2022-11-15T11:54:37.896Z,2.73
2022-11-15T11:57:18.187Z,2.30
2022-11-15T11:59:51.769Z,2.50
2022-11-15T12:02:30.098Z,5.40
2022-11-15T12:05:05.186Z,4.57
2022-11-15T12:07:36.814Z,2.83
2022-11-15T12:10:16.199Z,3.40
2022-11-15T12:12:51.485Z,2.63
2022-11-15T12:15:23.200Z,2.53
2022-11-15T12:17:50.243Z,3.47
2022-11-15T12:20:22.482Z,3.73
2022-11-15T12:23:00.064Z,3.30
2022-11-15T12:25:49.156Z,2.80
2022-11-15T12:29:06.491Z,2.70
2022-11-15T12:31:44.813Z,2.80
2022-11-15T12:34:29.601Z,2.57
2022-11-15T12:36:56.852Z,2.63
2022-11-15T12:40:04.020Z,2.87
2022-11-15T12:42:30.887Z,3.10
2022-11-15T12:44:59.919Z,3.43
2022-11-15T12:47:27.646Z,3.40
2022-11-15T12:49:54.848Z,3.43
2022-11-15T12:52:21.614Z,3.30
2022-11-15T12:54:54.638Z,3.07
2022-11-15T12:57:21.061Z,3.30
2022-11-15T13:00:04.117Z,3.03
2022-11-15T13:02:39.686Z,2.60
2022-11-15T13:05:21.392Z,2.90
2022-11-15T13:07:47.938Z,2.63
2022-11-15T13:10:14.604Z,2.77
2022-11-15T13:12:47.061Z,2.57
2022-11-15T13:15:13.479Z,2.73
2022-11-15T13:17:50.860Z,2.93
2022-11-15T13:20:17.393Z,3.07
2022-11-15T13:22:55.653Z,2.80
2022-11-15T13:25:40.220Z,2.83
2022-11-15T13:28:15.575Z,3.20
2022-11-15T13:31:22.475Z,2.83
2022-11-15T13:33:49.477Z,3.03
2022-11-15T13:36:23.852Z,3.10
2022-11-15T13:38:58.759Z,2.93
2022-11-15T13:41:36.910Z,2.80
2022-11-15T13:44:05.251Z,2.83
2022-11-15T13:46:36.031Z,2.80
2022-11-15T13:49:13.263Z,2.90
2022-11-15T13:51:52.600Z,3.03
2022-11-15T13:54:42.713Z,3.30
2022-11-15T13:57:26.237Z,3.80
2022-11-15T13:59:54.997Z,3.80
2022-11-15T14:02:33.461Z,3.67
2022-11-15T14:05:15.089Z,3.90
2022-11-15T14:07:58.515Z,4.43
2022-11-15T14:10:32.349Z,4.03
2022-11-15T14:12:59.210Z,4.00
2022-11-15T14:15:30.016Z,4.00
2022-11-15T14:17:56.516Z,3.93
2022-11-15T14:20:36.521Z,4.00
2022-11-15T14:23:25.196Z,4.40
2022-11-15T14:25:56.950Z,4.40
2022-11-15T14:28:23.316Z,4.30
2022-11-15T14:30:52.523Z,4.57
2022-11-15T14:33:30.435Z,4.33
2022-11-15T14:35:58.660Z,4.20
2022-11-15T14:38:26.507Z,4.90
2022-11-15T14:40:53.032Z,4.23
2022-11-15T14:43:19.779Z,4.67
2022-11-15T14:45:46.572Z,4.63
2022-11-15T14:48:13.023Z,4.60
2022-11-15T14:50:39.871Z,5.00
2022-11-15T14:53:07.080Z,4.53
2022-11-15T14:55:37.170Z,5.00
2022-11-15T14:58:04.513Z,4.90
2022-11-15T15:00:35.324Z,4.63
2022-11-15T15:03:02.874Z,4.33
2022-11-15T15:05:44.043Z,4.37
2022-11-15T15:08:11.866Z,4.60
2022-11-15T15:10:42.530Z,4.30
2022-11-15T15:13:21.734Z,4.50
2022-11-15T15:15:49.812Z,4.60
2022-11-15T15:18:16.675Z,5.27
2022-11-15T15:20:44.464Z,5.30
2022-11-15T15:23:19.568Z,4.80
2022-11-15T15:25:48.777Z,5.23
2022-11-15T15:28:15.771Z,4.80
2022-11-15T15:30:42.588Z,5.10
2022-11-15T15:33:09.204Z,4.10
2022-11-15T15:35:36.179Z,5.00
2022-11-15T15:38:04.463Z,5.00
2022-11-15T15:40:33.488Z,5.70
2022-11-15T15:43:00.188Z,5.27
2022-11-15T15:45:29.165Z,4.83
2022-11-15T15:47:55.794Z,4.93
2022-11-15T15:50:22.631Z,4.83
2022-11-15T15:52:50.243Z,4.40
2022-11-15T15:55:16.778Z,4.40
2022-11-15T15:57:43.429Z,3.93
2022-11-15T16:00:10.888Z,5.37
2022-11-15T16:02:40.978Z,4.37
2022-11-15T16:05:13.082Z,4.33
2022-11-15T16:07:40.979Z,4.57
2022-11-15T16:10:26.885Z,4.70
2022-11-15T16:12:54.734Z,4.90
2022-11-15T16:15:22.852Z,5.07
2022-11-15T16:17:54.861Z,5.43
2022-11-15T16:20:33.010Z,5.40
2022-11-15T16:23:04.319Z,5.60
2022-11-15T16:25:56.433Z,5.00
2022-11-15T16:28:25.427Z,5.60
2022-11-15T16:31:05.376Z,4.90
2022-11-15T16:33:33.211Z,5.03
2022-11-15T16:35:59.958Z,5.80
2022-11-15T16:38:26.561Z,6.10
2022-11-15T16:40:53.014Z,5.30
2022-11-15T16:43:19.596Z,5.00
2022-11-15T16:45:46.851Z,5.70
2022-11-15T16:48:23.659Z,5.60
2022-11-15T16:50:50.641Z,5.43
2022-11-15T16:53:17.434Z,5.40
2022-11-15T16:55:44.135Z,5.43
2022-11-15T16:58:10.671Z,5.20
2022-11-15T17:00:37.169Z,5.20
2022-11-15T17:03:04.290Z,5.07
2022-11-15T17:05:30.793Z,5.27
2022-11-15T17:07:57.342Z,4.80
2022-11-15T17:10:26.108Z,5.20
2022-11-15T17:12:55.326Z,5.20
2022-11-15T17:15:22.753Z,4.77
2022-11-15T17:17:53.850Z,4.90
2022-11-15T17:20:22.961Z,5.30
2022-11-15T17:22:49.768Z,5.07
2022-11-15T17:25:16.750Z,4.93
2022-11-15T17:27:43.233Z,4.83
2022-11-15T17:30:19.984Z,6.10
2022-11-15T17:32:47.877Z,5.20
2022-11-15T17:35:15.962Z,4.87
2022-11-15T17:37:43.294Z,5.00
2022-11-15T17:40:10.386Z,5.10
2022-11-15T17:42:37.144Z,5.20
2022-11-15T17:45:09.317Z,5.63
2022-11-15T17:47:36.673Z,5.00
2022-11-15T17:50:03.472Z,5.33
2022-11-15T17:52:30.563Z,5.30
2022-11-15T17:54:57.018Z,5.37
2022-11-15T17:57:23.455Z,5.70
2022-11-15T17:59:49.902Z,5.40
2022-11-15T18:02:16.665Z,5.50
2022-11-15T18:04:43.099Z,7.00
2022-11-15T18:07:11.573Z,7.80
2022-11-15T18:09:42.115Z,7.17
2022-11-15T18:12:09.180Z,6.57
2022-11-15T18:14:35.685Z,6.57
2022-11-15T18:17:03.949Z,6.30
2022-11-15T18:19:30.445Z,5.90
2022-11-15T18:21:57.010Z,6.23
2022-11-15T18:24:27.119Z,6.10
2022-11-15T18:26:53.697Z,6.13
2022-11-15T18:29:21.250Z,7.10
2022-11-15T18:31:50.249Z,7.27
2022-11-15T18:34:17.753Z,6.80
2022-11-15T18:36:44.406Z,7.57
2022-11-15T18:39:16.326Z,7.33
2022-11-15T18:41:44.574Z,7.73
2022-11-15T18:44:11.013Z,7.80
2022-11-15T18:46:39.164Z,7.40
2022-11-15T18:49:09.531Z,7.40
2022-11-15T18:51:41.675Z,7.83
2022-11-15T18:54:10.646Z,7.10
2022-11-15T18:56:37.748Z,7.97
2022-11-15T18:59:05.155Z,7.77
2022-11-15T19:01:35.726Z,7.30
2022-11-15T19:04:08.333Z,7.53
2022-11-15T19:06:41.227Z,7.00
2022-11-15T19:09:09.142Z,8.30
2022-11-15T19:11:39.255Z,8.27
2022-11-15T19:14:11.202Z,8.00
2022-11-15T19:16:40.103Z,7.43
2022-11-15T19:19:10.645Z,8.17
2022-11-15T19:21:37.244Z,8.13
2022-11-15T19:24:04.079Z,8.57
2022-11-15T19:26:30.607Z,8.37
2022-11-15T19:29:02.122Z,8.57
2022-11-15T19:31:30.354Z,7.70
2022-11-15T19:33:59.496Z,7.37
2022-11-15T19:36:48.012Z,7.37
2022-11-15T19:39:15.444Z,7.60
2022-11-15T19:41:43.471Z,7.60
2022-11-15T19:44:11.575Z,7.33
2022-11-15T19:46:38.279Z,6.60
2022-11-15T19:49:08.059Z,6.57
2022-11-15T19:51:34.571Z,6.97
2022-11-15T19:54:06.342Z,6.43
2022-11-15T19:56:34.808Z,6.80
2022-11-15T19:59:02.402Z,6.57
2022-11-15T20:01:33.087Z,6.40
2022-11-15T20:04:00.492Z,6.13
2022-11-15T20:06:31.168Z,6.03
2022-11-15T20:08:58.069Z,6.63
2022-11-15T20:11:25.760Z,6.67
2022-11-15T20:13:57.366Z,6.33
2022-11-15T20:16:24.053Z,5.97
2022-11-15T20:18:51.540Z,6.30
2022-11-15T20:21:18.837Z,6.13
2022-11-15T20:23:45.636Z,6.70
2022-11-15T20:26:15.344Z,6.00
2022-11-15T20:28:42.138Z,5.80
2022-11-15T20:31:09.845Z,6.20
2022-11-15T20:33:36.461Z,6.47
2022-11-15T20:36:09.573Z,6.47
2022-11-15T20:38:36.191Z,6.30
2022-11-15T20:41:03.128Z,7.17
2022-11-15T20:43:29.664Z,6.97
2022-11-15T20:45:56.107Z,7.40
2022-11-15T20:48:22.933Z,6.63
2022-11-15T20:50:49.590Z,6.80
2022-11-15T20:53:19.170Z,7.37
2022-11-15T20:55:49.033Z,5.90
2022-11-15T20:58:16.872Z,6.13
2022-11-15T21:00:45.488Z,6.33
2022-11-15T21:03:14.001Z,6.83
2022-11-15T21:05:42.867Z,6.40
2022-11-15T21:08:10.629Z,6.37
2022-11-15T21:10:56.053Z,6.67
2022-11-15T21:13:22.756Z,5.67
2022-11-15T21:15:50.214Z,5.90
2022-11-15T21:18:17.001Z,5.60
2022-11-15T21:20:43.537Z,6.17
2022-11-15T21:23:11.501Z,5.30
2022-11-15T21:25:37.985Z,6.23
2022-11-15T21:28:04.454Z,6.43
2022-11-15T21:30:31.227Z,6.10
2022-11-15T21:32:57.705Z,6.00
2022-11-15T21:35:24.380Z,5.73
2022-11-15T21:37:56.473Z,6.20
2022-11-15T21:40:23.658Z,5.40
2022-11-15T21:42:50.037Z,5.13
2022-11-15T21:45:16.755Z,5.70
2022-11-15T21:47:46.132Z,5.20
2022-11-15T21:50:13.813Z,5.00
2022-11-15T21:52:40.716Z,5.27
2022-11-15T21:55:08.549Z,5.07
2022-11-15T21:57:35.058Z,5.33
2022-11-15T22:00:22.279Z,5.50
2022-11-15T22:02:48.788Z,8.07
2022-11-15T22:05:16.118Z,5.80
2022-11-15T22:07:42.629Z,5.27
2022-11-15T22:10:09.452Z,5.20
2022-11-15T22:12:36.282Z,5.07
2022-11-15T22:15:02.995Z,5.57
2022-11-15T22:17:49.437Z,5.30
2022-11-15T22:20:42.931Z,5.53
2022-11-15T22:23:03.027Z,5.13
2022-11-15T22:25:29.659Z,4.87
2022-11-15T22:27:56.547Z,5.40
2022-11-15T22:30:24.201Z,5.27
2022-11-15T22:32:50.664Z,5.07
2022-11-15T22:35:17.336Z,4.80
2022-11-15T22:37:43.757Z,4.73
2022-11-15T22:40:10.562Z,5.20
2022-11-15T22:42:36.999Z,4.63
2022-11-15T22:45:04.040Z,5.03
2022-11-15T22:47:30.489Z,4.90
2022-11-15T22:49:56.960Z,4.80
2022-11-15T22:52:23.469Z,4.60
2022-11-15T22:54:49.975Z,5.07
2022-11-15T22:57:16.605Z,4.80
2022-11-15T22:59:43.295Z,4.80
2022-11-15T23:02:09.742Z,4.97
2022-11-15T23:05:01.487Z,4.60
2022-11-15T23:07:28.331Z,5.00
2022-11-15T23:10:13.457Z,4.80
2022-11-15T23:12:59.104Z,4.53
2022-11-15T23:15:29.524Z,4.30
2022-11-15T23:17:58.782Z,4.50
2022-11-15T23:20:42.539Z,4.53
2022-11-15T23:23:11.226Z,4.40
2022-11-15T23:25:37.765Z,5.20
2022-11-15T23:28:05.172Z,4.27
2022-11-15T23:30:54.252Z,4.97
2022-11-15T23:33:39.859Z,5.50
2022-11-15T23:36:07.319Z,4.60
2022-11-15T23:38:37.063Z,5.23
2022-11-15T23:41:05.304Z,5.10
2022-11-15T23:43:32.244Z,5.10
2022-11-15T23:46:01.953Z,5.30
2022-11-15T23:48:28.706Z,4.80
2022-11-15T23:50:55.210Z,5.37
2022-11-15T23:53:21.669Z,5.17
2022-11-15T23:56:00.597Z,5.60
2022-11-15T23:58:28.417Z,5.23
